SBI7520 UTDD-ZMUB
Flight info
| Callsign | SBI7520 |
|---|---|
| Flight time | N/A |
| Altitude | 37000 |
| Route | UTDD N0448F370 JD1A JD B350 VADER L138 TADOT L141 KAMUD A468 XKC B215 FKG G588 IM H84 SER IM ERDEN NOMIN BADAR UB14M RW14 ZMUB |
| Aircraft | B738/M-SDGIWZ/S |
Departure
| Time | 2026-05-07 06:26 |
|---|---|
| Airport | Dushanbe International Airport (UTDD) |
Arrival
| Time | N/A |
|---|---|
| Airport | Buyant-Ukhaa International Airport (ZMUB) |
| Time | Latitude | Longitude | Altitude | Speed | Heading |
|---|---|---|---|---|---|
| 2026-05-07 06:03 | 38.54758 | 68.81575 | 2584 ft | 0 kts | 349° |
| 2026-05-07 06:22 | 38.54732 | 68.81581 | 2584 ft | 5 kts | 349° |
| 2026-05-07 06:22 | 38.54686 | 68.81592 | 2584 ft | 8 kts | 351° |
| 2026-05-07 06:23 | 38.54646 | 68.81621 | 2584 ft | 4 kts | 304° |
| 2026-05-07 06:23 | 38.54658 | 68.81589 | 2584 ft | 12 kts | 283° |
| 2026-05-07 06:23 | 38.54647 | 68.81417 | 2584 ft | 26 kts | 268° |
| 2026-05-07 06:23 | 38.54647 | 68.81186 | 2584 ft | 25 kts | 270° |
| 2026-05-07 06:24 | 38.54647 | 68.80971 | 2584 ft | 22 kts | 270° |
| 2026-05-07 06:24 | 38.54648 | 68.80778 | 2584 ft | 19 kts | 265° |
| 2026-05-07 06:24 | 38.54557 | 68.80718 | 2584 ft | 16 kts | 184° |
| 2026-05-07 06:24 | 38.54449 | 68.80719 | 2584 ft | 15 kts | 179° |
| 2026-05-07 06:25 | 38.54348 | 68.80742 | 2584 ft | 14 kts | 128° |
| 2026-05-07 06:25 | 38.54336 | 68.80993 | 2584 ft | 59 kts | 90° |
| 2026-05-07 06:25 | 38.54334 | 68.81821 | 2584 ft | 124 kts | 90° |
| 2026-05-07 06:25 | 38.54333 | 68.83156 | 2586 ft | 175 kts | 90° |
| 2026-05-07 06:26 | 38.54330 | 68.84816 | 2887 ft | 192 kts | 90° |
| 2026-05-07 06:26 | 38.54314 | 68.86549 | 3390 ft | 200 kts | 90° |
| 2026-05-07 06:26 | 38.54305 | 68.88290 | 4046 ft | 200 kts | 90° |
| 2026-05-07 06:26 | 38.54302 | 68.90194 | 4176 ft | 229 kts | 90° |
| 2026-05-07 06:27 | 38.54297 | 68.92314 | 4544 ft | 243 kts | 90° |
| 2026-05-07 06:27 | 38.54294 | 68.94496 | 4976 ft | 255 kts | 90° |
| 2026-05-07 06:27 | 38.54292 | 68.96787 | 5615 ft | 262 kts | 90° |
| 2026-05-07 06:27 | 38.54292 | 68.99170 | 6127 ft | 276 kts | 90° |
| 2026-05-07 06:28 | 38.54292 | 69.01651 | 6822 ft | 282 kts | 90° |
| 2026-05-07 06:28 | 38.54262 | 69.04154 | 7495 ft | 288 kts | 94° |
| 2026-05-07 06:28 | 38.53819 | 69.06651 | 8164 ft | 292 kts | 116° |
| 2026-05-07 06:28 | 38.52611 | 69.08705 | 8929 ft | 292 kts | 138° |
| 2026-05-07 06:29 | 38.50992 | 69.10229 | 9629 ft | 294 kts | 153° |
| 2026-05-07 06:29 | 38.49047 | 69.10960 | 10185 ft | 298 kts | 178° |
| 2026-05-07 06:29 | 38.46962 | 69.10912 | 10564 ft | 310 kts | 181° |
| 2026-05-07 06:29 | 38.44735 | 69.10914 | 10628 ft | 332 kts | 179° |
| 2026-05-07 06:30 | 38.42359 | 69.10795 | 10721 ft | 351 kts | 188° |
| 2026-05-07 06:30 | 38.40041 | 69.09873 | 11168 ft | 356 kts | 208° |
| 2026-05-07 06:30 | 38.38001 | 69.08055 | 11676 ft | 361 kts | 222° |
| 2026-05-07 06:30 | 38.36367 | 69.05624 | 12209 ft | 364 kts | 238° |
| 2026-05-07 06:31 | 38.35412 | 69.02662 | 12754 ft | 366 kts | 258° |
| 2026-05-07 06:31 | 38.35165 | 68.99438 | 13372 ft | 366 kts | 269° |
| 2026-05-07 06:31 | 38.35229 | 68.96189 | 13804 ft | 370 kts | 275° |
| 2026-05-07 06:31 | 38.35699 | 68.92992 | 14343 ft | 371 kts | 289° |
| 2026-05-07 06:32 | 38.36967 | 68.90141 | 14816 ft | 372 kts | 311° |
| 2026-05-07 06:32 | 38.38794 | 68.87846 | 15441 ft | 370 kts | 319° |
| 2026-05-07 06:32 | 38.40908 | 68.85972 | 15598 ft | 381 kts | 336° |
| 2026-05-07 06:32 | 38.43459 | 68.85252 | 16224 ft | 379 kts | 356° |
| 2026-05-07 06:33 | 38.46121 | 68.85274 | 16598 ft | 384 kts | 2° |
| 2026-05-07 06:33 | 38.48719 | 68.86041 | 16914 ft | 391 kts | 24° |
| 2026-05-07 06:33 | 38.50908 | 68.88028 | 17390 ft | 394 kts | 43° |
| 2026-05-07 06:33 | 38.52766 | 68.90633 | 17626 ft | 402 kts | 50° |
| 2026-05-07 06:34 | 38.54188 | 68.93748 | 17901 ft | 409 kts | 70° |
| 2026-05-07 06:34 | 38.54646 | 68.97302 | 18258 ft | 411 kts | 91° |
| 2026-05-07 06:34 | 38.54504 | 69.00957 | 18714 ft | 411 kts | 94° |
| 2026-05-07 06:34 | 38.54399 | 69.04616 | 18938 ft | 416 kts | 91° |
| 2026-05-07 06:35 | 38.54385 | 69.08329 | 19033 ft | 419 kts | 91° |
| 2026-05-07 06:35 | 38.54388 | 69.12006 | 19048 ft | 410 kts | 91° |
| 2026-05-07 06:35 | 38.54384 | 69.15607 | 19048 ft | 407 kts | 91° |
| 2026-05-07 06:35 | 38.54382 | 69.19228 | 19048 ft | 409 kts | 91° |
| 2026-05-07 06:36 | 38.54385 | 69.22869 | 19047 ft | 410 kts | 91° |
| 2026-05-07 06:36 | 38.54441 | 69.26473 | 19043 ft | 411 kts | 86° |
| 2026-05-07 06:36 | 38.54895 | 69.30112 | 19046 ft | 412 kts | 75° |
| 2026-05-07 06:36 | 38.55985 | 69.33471 | 19217 ft | 416 kts | 59° |
| 2026-05-07 06:37 | 38.57642 | 69.36461 | 19623 ft | 417 kts | 52° |
| 2026-05-07 06:37 | 38.59473 | 69.39389 | 19826 ft | 422 kts | 51° |
| 2026-05-07 06:37 | 38.61273 | 69.42303 | 20195 ft | 423 kts | 52° |
| 2026-05-07 06:37 | 38.63092 | 69.45280 | 20454 ft | 426 kts | 52° |
| 2026-05-07 06:38 | 38.64935 | 69.48282 | 20759 ft | 428 kts | 52° |
| 2026-05-07 06:38 | 38.66769 | 69.51256 | 21060 ft | 430 kts | 52° |
| 2026-05-07 06:38 | 38.68630 | 69.54273 | 21332 ft | 432 kts | 51° |
| 2026-05-07 06:38 | 38.70475 | 69.57262 | 21608 ft | 434 kts | 51° |
| 2026-05-07 06:39 | 38.72353 | 69.60308 | 21881 ft | 436 kts | 51° |
| 2026-05-07 06:39 | 38.74214 | 69.63326 | 22132 ft | 438 kts | 51° |
| 2026-05-07 06:39 | 38.76127 | 69.66430 | 22394 ft | 440 kts | 52° |
| 2026-05-07 06:39 | 38.78003 | 69.69475 | 22634 ft | 442 kts | 52° |
| 2026-05-07 06:40 | 38.79897 | 69.72552 | 22886 ft | 443 kts | 52° |
| 2026-05-07 06:40 | 38.81821 | 69.75680 | 23110 ft | 445 kts | 52° |
| 2026-05-07 06:40 | 38.83731 | 69.78787 | 23354 ft | 447 kts | 52° |
| 2026-05-07 06:40 | 38.85662 | 69.81931 | 23577 ft | 448 kts | 52° |
| 2026-05-07 06:41 | 38.87574 | 69.85049 | 23798 ft | 450 kts | 51° |
| 2026-05-07 06:41 | 38.89503 | 69.88197 | 23999 ft | 452 kts | 52° |
| 2026-05-07 06:41 | 38.91459 | 69.91392 | 24208 ft | 454 kts | 52° |
| 2026-05-07 06:41 | 38.93411 | 69.94582 | 24426 ft | 455 kts | 52° |
| 2026-05-07 06:42 | 38.95347 | 69.97749 | 24612 ft | 457 kts | 52° |
| 2026-05-07 06:42 | 38.97314 | 70.00972 | 24828 ft | 458 kts | 52° |
| 2026-05-07 06:42 | 38.99278 | 70.04193 | 25008 ft | 460 kts | 52° |
| 2026-05-07 06:42 | 39.01252 | 70.07432 | 25199 ft | 461 kts | 52° |
| 2026-05-07 06:43 | 39.03206 | 70.10643 | 25385 ft | 463 kts | 52° |
| 2026-05-07 06:43 | 39.05197 | 70.13917 | 25570 ft | 464 kts | 52° |
| 2026-05-07 06:43 | 39.07182 | 70.17184 | 25742 ft | 465 kts | 52° |
| 2026-05-07 06:43 | 39.09159 | 70.20443 | 25914 ft | 467 kts | 52° |
| 2026-05-07 06:44 | 39.11159 | 70.23742 | 26083 ft | 468 kts | 52° |
| 2026-05-07 06:44 | 39.13166 | 70.27056 | 26240 ft | 470 kts | 52° |
| 2026-05-07 06:44 | 39.15176 | 70.30379 | 26403 ft | 471 kts | 52° |
| 2026-05-07 06:44 | 39.17184 | 70.33701 | 26554 ft | 472 kts | 52° |
| 2026-05-07 06:45 | 39.19195 | 70.37032 | 26691 ft | 474 kts | 52° |
| 2026-05-07 06:45 | 39.21209 | 70.40372 | 26899 ft | 473 kts | 52° |
| 2026-05-07 06:45 | 39.23236 | 70.43735 | 27047 ft | 474 kts | 52° |
| 2026-05-07 06:45 | 39.25245 | 70.47072 | 27186 ft | 476 kts | 51° |
| 2026-05-07 06:46 | 39.27308 | 70.50414 | 27336 ft | 477 kts | 50° |
| 2026-05-07 06:46 | 39.29404 | 70.53714 | 27478 ft | 478 kts | 50° |
| 2026-05-07 06:46 | 39.31509 | 70.57027 | 27608 ft | 479 kts | 50° |
| 2026-05-07 06:46 | 39.33609 | 70.60361 | 27750 ft | 480 kts | 50° |
| 2026-05-07 06:47 | 39.35693 | 70.63678 | 27885 ft | 481 kts | 50° |
| 2026-05-07 06:47 | 39.37818 | 70.67064 | 28004 ft | 482 kts | 50° |
| 2026-05-07 06:47 | 39.39919 | 70.70414 | 28134 ft | 482 kts | 50° |
| 2026-05-07 06:47 | 39.42030 | 70.73786 | 28257 ft | 483 kts | 51° |
| 2026-05-07 06:48 | 39.45809 | 70.80923 | 28471 ft | 486 kts | 60° |
| 2026-05-07 06:48 | 39.47464 | 70.84735 | 28617 ft | 486 kts | 60° |
| 2026-05-07 06:48 | 39.49121 | 70.88541 | 28735 ft | 486 kts | 60° |
| 2026-05-07 06:49 | 39.50789 | 70.92329 | 28852 ft | 487 kts | 60° |
| 2026-05-07 06:49 | 39.52442 | 70.96098 | 28965 ft | 487 kts | 60° |
| 2026-05-07 06:49 | 39.54100 | 70.99913 | 29082 ft | 488 kts | 60° |
| 2026-05-07 06:49 | 39.55756 | 71.03740 | 29183 ft | 488 kts | 60° |
| 2026-05-07 06:50 | 39.59058 | 71.11405 | 29408 ft | 489 kts | 60° |
| 2026-05-07 06:50 | 39.62379 | 71.19116 | 29606 ft | 490 kts | 60° |
| 2026-05-07 06:51 | 39.64021 | 71.22948 | 29799 ft | 488 kts | 60° |
| 2026-05-07 06:51 | 39.65666 | 71.26814 | 29915 ft | 488 kts | 60° |
| 2026-05-07 06:51 | 39.69013 | 71.34413 | 30145 ft | 488 kts | 57° |
| 2026-05-07 06:52 | 39.70837 | 71.38159 | 30352 ft | 485 kts | 56° |
| 2026-05-07 06:52 | 39.72633 | 71.41846 | 30466 ft | 486 kts | 57° |
| 2026-05-07 06:52 | 39.76179 | 71.49264 | 30666 ft | 486 kts | 57° |
| 2026-05-07 06:53 | 39.77950 | 71.53030 | 30818 ft | 485 kts | 57° |
| 2026-05-07 06:53 | 39.79702 | 71.56760 | 30934 ft | 485 kts | 57° |
| 2026-05-07 06:53 | 39.81458 | 71.60490 | 31046 ft | 485 kts | 57° |
| 2026-05-07 06:53 | 39.83222 | 71.64224 | 31138 ft | 486 kts | 57° |
| 2026-05-07 06:54 | 39.84992 | 71.67958 | 31287 ft | 484 kts | 57° |
| 2026-05-07 06:54 | 39.86754 | 71.71677 | 31378 ft | 485 kts | 57° |
| 2026-05-07 06:54 | 39.90241 | 71.79118 | 31555 ft | 485 kts | 58° |
| 2026-05-07 06:55 | 39.91983 | 71.82870 | 31685 ft | 484 kts | 57° |
| 2026-05-07 06:55 | 39.93720 | 71.86591 | 31790 ft | 484 kts | 57° |
| 2026-05-07 06:55 | 39.97244 | 71.94080 | 31977 ft | 484 kts | 57° |
| 2026-05-07 06:56 | 39.98988 | 71.97801 | 32107 ft | 483 kts | 57° |
| 2026-05-07 06:56 | 40.00741 | 72.01553 | 32204 ft | 483 kts | 57° |
| 2026-05-07 06:56 | 40.02455 | 72.05242 | 32308 ft | 482 kts | 57° |
| 2026-05-07 06:56 | 40.04186 | 72.08983 | 32394 ft | 482 kts | 57° |
| 2026-05-07 06:57 | 40.05928 | 72.12757 | 32514 ft | 481 kts | 57° |
| 2026-05-07 06:57 | 40.07623 | 72.16444 | 32648 ft | 480 kts | 57° |
| 2026-05-07 06:57 | 40.11057 | 72.23905 | 32853 ft | 479 kts | 57° |
| 2026-05-07 06:58 | 40.14514 | 72.31383 | 33015 ft | 479 kts | 56° |
| 2026-05-07 06:58 | 40.17952 | 72.38766 | 33174 ft | 479 kts | 56° |
| 2026-05-07 06:59 | 40.21395 | 72.46259 | 33338 ft | 479 kts | 57° |
| 2026-05-07 06:59 | 40.24783 | 72.53716 | 33508 ft | 479 kts | 57° |
| 2026-05-07 07:00 | 40.28127 | 72.61187 | 33673 ft | 479 kts | 59° |
| 2026-05-07 07:00 | 40.30999 | 72.69097 | 33837 ft | 479 kts | 63° |
| 2026-05-07 07:01 | 40.33830 | 72.76931 | 33985 ft | 479 kts | 62° |
| 2026-05-07 07:01 | 40.35281 | 72.80894 | 34090 ft | 477 kts | 62° |
| 2026-05-07 07:01 | 40.36695 | 72.84799 | 34157 ft | 477 kts | 63° |
| 2026-05-07 07:02 | 40.39505 | 72.92647 | 34314 ft | 476 kts | 63° |
| 2026-05-07 07:02 | 40.42320 | 73.00498 | 34454 ft | 476 kts | 63° |
| 2026-05-07 07:03 | 40.45137 | 73.08319 | 34610 ft | 475 kts | 63° |
| 2026-05-07 07:03 | 40.47974 | 73.16141 | 34748 ft | 474 kts | 63° |
| 2026-05-07 07:04 | 40.50764 | 73.23946 | 34910 ft | 473 kts | 64° |
| 2026-05-07 07:04 | 40.53521 | 73.31712 | 35058 ft | 472 kts | 64° |
| 2026-05-07 07:05 | 40.56298 | 73.39549 | 35211 ft | 471 kts | 64° |
| 2026-05-07 07:05 | 40.59030 | 73.47308 | 35347 ft | 470 kts | 64° |
| 2026-05-07 07:06 | 40.61769 | 73.55082 | 35485 ft | 470 kts | 63° |
| 2026-05-07 07:06 | 40.64525 | 73.62893 | 35622 ft | 469 kts | 63° |
| 2026-05-07 07:07 | 40.67275 | 73.70637 | 35754 ft | 468 kts | 64° |
| 2026-05-07 07:07 | 40.70006 | 73.78348 | 35887 ft | 466 kts | 64° |
| 2026-05-07 07:08 | 40.72720 | 73.86073 | 36029 ft | 465 kts | 64° |
| 2026-05-07 07:08 | 40.75385 | 73.93787 | 36151 ft | 464 kts | 64° |
| 2026-05-07 07:09 | 40.78054 | 74.01483 | 36275 ft | 463 kts | 64° |
| 2026-05-07 07:09 | 40.80734 | 74.09175 | 36395 ft | 462 kts | 64° |
| 2026-05-07 07:10 | 40.83388 | 74.16845 | 36516 ft | 460 kts | 64° |
| 2026-05-07 07:10 | 40.86018 | 74.24505 | 36627 ft | 460 kts | 64° |
| 2026-05-07 07:11 | 40.88656 | 74.32195 | 36743 ft | 459 kts | 64° |
| 2026-05-07 07:11 | 40.89957 | 74.36000 | 36851 ft | 457 kts | 64° |
| 2026-05-07 07:11 | 40.91272 | 74.39843 | 36853 ft | 458 kts | 64° |
| 2026-05-07 07:12 | 40.93903 | 74.47485 | 36859 ft | 459 kts | 64° |
| 2026-05-07 07:12 | 40.96551 | 74.55169 | 36859 ft | 461 kts | 64° |
| 2026-05-07 07:13 | 40.99171 | 74.62902 | 36858 ft | 463 kts | 64° |
| 2026-05-07 07:13 | 41.01807 | 74.70645 | 36858 ft | 464 kts | 64° |
| 2026-05-07 07:14 | 41.04476 | 74.78457 | 36859 ft | 465 kts | 65° |
| 2026-05-07 07:14 | 41.07129 | 74.86267 | 36858 ft | 467 kts | 65° |
| 2026-05-07 07:15 | 41.10057 | 74.93870 | 36859 ft | 466 kts | 58° |
| 2026-05-07 07:15 | 41.13272 | 75.01335 | 36858 ft | 468 kts | 59° |
| 2026-05-07 07:16 | 41.16398 | 75.08903 | 36857 ft | 469 kts | 59° |
| 2026-05-07 07:16 | 41.19519 | 75.16451 | 36858 ft | 470 kts | 59° |
| 2026-05-07 07:17 | 41.22666 | 75.24052 | 36857 ft | 471 kts | 59° |
| 2026-05-07 07:17 | 41.25808 | 75.31669 | 36858 ft | 471 kts | 59° |
| 2026-05-07 07:18 | 41.28955 | 75.39324 | 36857 ft | 472 kts | 59° |
| 2026-05-07 07:18 | 41.32087 | 75.46969 | 36858 ft | 472 kts | 59° |
| 2026-05-07 07:19 | 41.35224 | 75.54572 | 36858 ft | 472 kts | 59° |
| 2026-05-07 07:19 | 41.38363 | 75.62201 | 36858 ft | 472 kts | 59° |
| 2026-05-07 07:20 | 41.41372 | 75.69941 | 36857 ft | 472 kts | 65° |
| 2026-05-07 07:20 | 41.43104 | 75.78368 | 36861 ft | 474 kts | 84° |
| 2026-05-07 07:21 | 41.43530 | 75.87055 | 37069 ft | 468 kts | 85° |
| 2026-05-07 07:21 | 41.43807 | 75.91385 | 37251 ft | 465 kts | 84° |
| 2026-05-07 07:21 | 41.44098 | 75.95650 | 37268 ft | 465 kts | 85° |
| 2026-05-07 07:22 | 41.44633 | 76.04215 | 37265 ft | 467 kts | 85° |
| 2026-05-07 07:22 | 41.45137 | 76.12846 | 37263 ft | 468 kts | 85° |
| 2026-05-07 07:23 | 41.45555 | 76.21486 | 37263 ft | 470 kts | 86° |
| 2026-05-07 07:23 | 41.45952 | 76.30165 | 37262 ft | 471 kts | 86° |
| 2026-05-07 07:24 | 41.46384 | 76.38893 | 37262 ft | 472 kts | 85° |
| 2026-05-07 07:24 | 41.46838 | 76.47607 | 37264 ft | 474 kts | 85° |
| 2026-05-07 07:25 | 41.47517 | 76.60687 | 37262 ft | 475 kts | 85° |
| 2026-05-07 07:26 | 41.47954 | 76.69473 | 37263 ft | 473 kts | 86° |
| 2026-05-07 07:26 | 41.48383 | 76.78185 | 37263 ft | 473 kts | 86° |
| 2026-05-07 07:27 | 41.48807 | 76.86916 | 37262 ft | 474 kts | 86° |
| 2026-05-07 07:27 | 41.49212 | 76.95689 | 37262 ft | 474 kts | 86° |
| 2026-05-07 07:28 | 41.49610 | 77.04417 | 37263 ft | 473 kts | 85° |
| 2026-05-07 07:28 | 41.50011 | 77.13158 | 37263 ft | 473 kts | 85° |
| 2026-05-07 07:29 | 41.50414 | 77.21865 | 37262 ft | 472 kts | 85° |
| 2026-05-07 07:29 | 41.50817 | 77.30601 | 37262 ft | 472 kts | 85° |
| 2026-05-07 07:30 | 41.51198 | 77.39301 | 37264 ft | 473 kts | 85° |
| 2026-05-07 07:30 | 41.51586 | 77.48094 | 37263 ft | 473 kts | 85° |
| 2026-05-07 07:31 | 41.51939 | 77.56815 | 37263 ft | 473 kts | 86° |
| 2026-05-07 07:31 | 41.52311 | 77.65554 | 37261 ft | 474 kts | 86° |
| 2026-05-07 07:32 | 41.52685 | 77.74295 | 37264 ft | 474 kts | 86° |
| 2026-05-07 07:32 | 41.53028 | 77.83079 | 37262 ft | 473 kts | 86° |
| 2026-05-07 07:33 | 41.53356 | 77.91784 | 37263 ft | 472 kts | 86° |
| 2026-05-07 07:33 | 41.53710 | 78.00541 | 37263 ft | 473 kts | 86° |
| 2026-05-07 07:34 | 41.54050 | 78.09237 | 37262 ft | 472 kts | 86° |
| 2026-05-07 07:34 | 41.54366 | 78.17983 | 37263 ft | 473 kts | 86° |
| 2026-05-07 07:35 | 41.54683 | 78.26701 | 37263 ft | 473 kts | 86° |
| 2026-05-07 07:35 | 41.55003 | 78.35492 | 37263 ft | 472 kts | 86° |
| 2026-05-07 07:36 | 41.55300 | 78.44219 | 37264 ft | 473 kts | 86° |
| 2026-05-07 07:36 | 41.55609 | 78.52989 | 37263 ft | 473 kts | 86° |
| 2026-05-07 07:37 | 41.55897 | 78.61697 | 37263 ft | 472 kts | 86° |
| 2026-05-07 07:37 | 41.56165 | 78.70400 | 37263 ft | 472 kts | 87° |
| 2026-05-07 07:38 | 41.56445 | 78.79176 | 37264 ft | 473 kts | 87° |
| 2026-05-07 07:38 | 41.56756 | 78.87872 | 37263 ft | 471 kts | 86° |
| 2026-05-07 07:39 | 41.57163 | 78.96583 | 37262 ft | 471 kts | 85° |
| 2026-05-07 07:39 | 41.57554 | 79.05332 | 37264 ft | 472 kts | 85° |
| 2026-05-07 07:40 | 41.57921 | 79.14059 | 37263 ft | 471 kts | 85° |
| 2026-05-07 07:40 | 41.58285 | 79.22703 | 37262 ft | 468 kts | 84° |
| 2026-05-07 07:41 | 41.58713 | 79.31388 | 37262 ft | 469 kts | 84° |
| 2026-05-07 07:41 | 41.59101 | 79.40044 | 37263 ft | 469 kts | 85° |
| 2026-05-07 07:42 | 41.59458 | 79.48710 | 37263 ft | 470 kts | 85° |
| 2026-05-07 07:42 | 41.59802 | 79.57429 | 37263 ft | 468 kts | 85° |
| 2026-05-07 07:43 | 41.60124 | 79.66065 | 37261 ft | 468 kts | 86° |
| 2026-05-07 07:43 | 41.60449 | 79.74745 | 37257 ft | 469 kts | 85° |
| 2026-05-07 07:44 | 41.60765 | 79.83463 | 37251 ft | 469 kts | 86° |
| 2026-05-07 07:44 | 41.61075 | 79.92138 | 37246 ft | 469 kts | 85° |
| 2026-05-07 07:45 | 41.61371 | 80.00835 | 37179 ft | 470 kts | 86° |
| 2026-05-07 07:45 | 41.61653 | 80.09494 | 37097 ft | 470 kts | 86° |
| 2026-05-07 07:46 | 41.61963 | 80.18172 | 37019 ft | 467 kts | 85° |
| 2026-05-07 07:46 | 41.62245 | 80.26873 | 37021 ft | 468 kts | 86° |
| 2026-05-07 07:47 | 41.62468 | 80.35535 | 37021 ft | 469 kts | 86° |
| 2026-05-07 07:47 | 41.62671 | 80.44225 | 37021 ft | 470 kts | 86° |
| 2026-05-07 07:48 | 41.62901 | 80.52952 | 37019 ft | 470 kts | 86° |
| 2026-05-07 07:48 | 41.63152 | 80.61652 | 37019 ft | 470 kts | 86° |
| 2026-05-07 07:49 | 41.63397 | 80.70351 | 37020 ft | 469 kts | 86° |
| 2026-05-07 07:49 | 41.63612 | 80.79022 | 37021 ft | 470 kts | 87° |
| 2026-05-07 07:50 | 41.63834 | 80.87708 | 37020 ft | 470 kts | 86° |
| 2026-05-07 07:50 | 41.64070 | 80.96440 | 37018 ft | 471 kts | 86° |
| 2026-05-07 07:51 | 41.64294 | 81.05165 | 37019 ft | 469 kts | 85° |
| 2026-05-07 07:51 | 41.64533 | 81.13832 | 37020 ft | 468 kts | 84° |
| 2026-05-07 07:52 | 41.64820 | 81.22481 | 37018 ft | 467 kts | 84° |
| 2026-05-07 07:52 | 41.65061 | 81.31148 | 37020 ft | 467 kts | 84° |
| 2026-05-07 07:53 | 41.65219 | 81.39774 | 37020 ft | 467 kts | 85° |
| 2026-05-07 07:53 | 41.65403 | 81.48440 | 37022 ft | 468 kts | 84° |
| 2026-05-07 07:54 | 41.65590 | 81.57148 | 37019 ft | 466 kts | 84° |
| 2026-05-07 07:54 | 41.65756 | 81.65763 | 37021 ft | 466 kts | 85° |
| 2026-05-07 07:55 | 41.65912 | 81.74374 | 37021 ft | 467 kts | 85° |
| 2026-05-07 07:55 | 41.66089 | 81.83050 | 37020 ft | 468 kts | 85° |
| 2026-05-07 07:56 | 41.66266 | 81.91720 | 37019 ft | 467 kts | 85° |
| 2026-05-07 07:56 | 41.66423 | 82.00413 | 37020 ft | 467 kts | 85° |
| 2026-05-07 07:57 | 41.66571 | 82.09060 | 37021 ft | 469 kts | 85° |
| 2026-05-07 07:57 | 41.66706 | 82.17758 | 37019 ft | 468 kts | 85° |
| 2026-05-07 07:58 | 41.66845 | 82.26421 | 37020 ft | 467 kts | 85° |
| 2026-05-07 07:58 | 41.66965 | 82.35088 | 37020 ft | 467 kts | 85° |
| 2026-05-07 07:59 | 41.67100 | 82.43776 | 37021 ft | 469 kts | 85° |
| 2026-05-07 07:59 | 41.67229 | 82.52442 | 37019 ft | 467 kts | 85° |
| 2026-05-07 08:00 | 41.67329 | 82.61089 | 37019 ft | 466 kts | 85° |
| 2026-05-07 08:00 | 41.67442 | 82.69781 | 37021 ft | 468 kts | 86° |
| 2026-05-07 08:01 | 41.67552 | 82.78455 | 37019 ft | 468 kts | 84° |
| 2026-05-07 08:01 | 41.67998 | 82.82668 | 37019 ft | 459 kts | 69° |
| 2026-05-07 08:01 | 41.69169 | 82.86610 | 37032 ft | 453 kts | 60° |
| 2026-05-07 08:02 | 41.72264 | 82.93876 | 37017 ft | 450 kts | 53° |
| 2026-05-07 08:02 | 41.75574 | 83.00977 | 37019 ft | 451 kts | 54° |
| 2026-05-07 08:03 | 41.78831 | 83.08122 | 37019 ft | 451 kts | 54° |
| 2026-05-07 08:03 | 41.82106 | 83.15253 | 37018 ft | 451 kts | 54° |
| 2026-05-07 08:04 | 41.85433 | 83.22394 | 37020 ft | 451 kts | 54° |
| 2026-05-07 08:04 | 41.88758 | 83.29497 | 37020 ft | 451 kts | 53° |
| 2026-05-07 08:05 | 41.92042 | 83.36599 | 37019 ft | 450 kts | 54° |
| 2026-05-07 08:05 | 41.95301 | 83.43766 | 37020 ft | 450 kts | 54° |
| 2026-05-07 08:06 | 41.98577 | 83.50869 | 37019 ft | 451 kts | 53° |
| 2026-05-07 08:06 | 42.01879 | 83.58012 | 37020 ft | 450 kts | 54° |
| 2026-05-07 08:07 | 42.05156 | 83.65226 | 36851 ft | 452 kts | 55° |
| 2026-05-07 08:07 | 42.08421 | 83.72393 | 36859 ft | 449 kts | 54° |
| 2026-05-07 08:08 | 42.11705 | 83.79511 | 36858 ft | 450 kts | 54° |
| 2026-05-07 08:08 | 42.14965 | 83.86668 | 36857 ft | 452 kts | 55° |
| 2026-05-07 08:09 | 42.18215 | 83.93922 | 36858 ft | 451 kts | 55° |
| 2026-05-07 08:09 | 42.21446 | 84.01093 | 36858 ft | 451 kts | 53° |
| 2026-05-07 08:10 | 42.24991 | 84.08053 | 36858 ft | 449 kts | 50° |
| 2026-05-07 08:10 | 42.28551 | 84.14946 | 36859 ft | 449 kts | 51° |
| 2026-05-07 08:11 | 42.32078 | 84.21907 | 36858 ft | 450 kts | 51° |
| 2026-05-07 08:11 | 42.35596 | 84.28856 | 36857 ft | 449 kts | 51° |
| 2026-05-07 08:12 | 42.39085 | 84.35750 | 36858 ft | 448 kts | 51° |
| 2026-05-07 08:12 | 42.42576 | 84.42698 | 36857 ft | 448 kts | 52° |
| 2026-05-07 08:13 | 42.46064 | 84.49715 | 36857 ft | 449 kts | 51° |
| 2026-05-07 08:13 | 42.49560 | 84.56703 | 36857 ft | 448 kts | 51° |
| 2026-05-07 08:14 | 42.53049 | 84.63622 | 36858 ft | 448 kts | 51° |
| 2026-05-07 08:14 | 42.56576 | 84.70628 | 36858 ft | 449 kts | 52° |
| 2026-05-07 08:15 | 42.60027 | 84.77621 | 36858 ft | 450 kts | 52° |
| 2026-05-07 08:15 | 42.63496 | 84.84650 | 36856 ft | 448 kts | 52° |
| 2026-05-07 08:16 | 42.66952 | 84.91673 | 36858 ft | 449 kts | 52° |
| 2026-05-07 08:16 | 42.70428 | 84.98724 | 36857 ft | 450 kts | 52° |
| 2026-05-07 08:17 | 42.73906 | 85.05754 | 36857 ft | 452 kts | 52° |
| 2026-05-07 08:17 | 42.77432 | 85.12887 | 36858 ft | 455 kts | 53° |
| 2026-05-07 08:18 | 42.80956 | 85.20022 | 36858 ft | 457 kts | 53° |
| 2026-05-07 08:18 | 42.84493 | 85.27242 | 36858 ft | 460 kts | 53° |
| 2026-05-07 08:19 | 42.88002 | 85.34470 | 36857 ft | 462 kts | 53° |
| 2026-05-07 08:19 | 42.91524 | 85.41766 | 36858 ft | 461 kts | 53° |
| 2026-05-07 08:20 | 42.95067 | 85.49014 | 36857 ft | 459 kts | 53° |
| 2026-05-07 08:20 | 42.98601 | 85.56269 | 36857 ft | 459 kts | 53° |
| 2026-05-07 08:21 | 43.02071 | 85.63513 | 36857 ft | 457 kts | 53° |
| 2026-05-07 08:21 | 43.05569 | 85.70726 | 36857 ft | 457 kts | 53° |
| 2026-05-07 08:22 | 43.09071 | 85.77987 | 36877 ft | 457 kts | 53° |
| 2026-05-07 08:22 | 43.10805 | 85.81622 | 37019 ft | 455 kts | 54° |
| 2026-05-07 08:22 | 43.12516 | 85.85230 | 37022 ft | 456 kts | 54° |
| 2026-05-07 08:23 | 43.15979 | 85.92520 | 37020 ft | 458 kts | 53° |
| 2026-05-07 08:23 | 43.19474 | 85.99789 | 37019 ft | 458 kts | 53° |
| 2026-05-07 08:24 | 43.22974 | 86.06992 | 37020 ft | 457 kts | 53° |
| 2026-05-07 08:24 | 43.26496 | 86.14239 | 37020 ft | 458 kts | 53° |
| 2026-05-07 08:25 | 43.30010 | 86.21516 | 37020 ft | 458 kts | 53° |
| 2026-05-07 08:25 | 43.33491 | 86.28759 | 37019 ft | 457 kts | 53° |
| 2026-05-07 08:26 | 43.38792 | 86.39577 | 37021 ft | 457 kts | 52° |
| 2026-05-07 08:26 | 43.42320 | 86.46846 | 37020 ft | 457 kts | 53° |
| 2026-05-07 08:27 | 43.45831 | 86.54094 | 37019 ft | 457 kts | 52° |
| 2026-05-07 08:27 | 43.49343 | 86.61380 | 37021 ft | 458 kts | 53° |
| 2026-05-07 08:28 | 43.52860 | 86.68636 | 37020 ft | 456 kts | 53° |
| 2026-05-07 08:28 | 43.56373 | 86.75857 | 37020 ft | 456 kts | 54° |
| 2026-05-07 08:29 | 43.59837 | 86.83210 | 37020 ft | 458 kts | 54° |
| 2026-05-07 08:29 | 43.63287 | 86.90505 | 37019 ft | 458 kts | 54° |
| 2026-05-07 08:30 | 43.66781 | 86.97892 | 37020 ft | 459 kts | 54° |
| 2026-05-07 08:30 | 43.70237 | 87.05238 | 37020 ft | 461 kts | 54° |
| 2026-05-07 08:31 | 43.73707 | 87.12668 | 37019 ft | 462 kts | 54° |
| 2026-05-07 08:31 | 43.77199 | 87.20180 | 37020 ft | 462 kts | 54° |
| 2026-05-07 08:32 | 43.80662 | 87.27612 | 37019 ft | 462 kts | 54° |
| 2026-05-07 08:32 | 43.84147 | 87.35053 | 37021 ft | 462 kts | 54° |
| 2026-05-07 08:33 | 43.87602 | 87.42514 | 37019 ft | 463 kts | 54° |
| 2026-05-07 08:33 | 43.91068 | 87.50023 | 37019 ft | 462 kts | 54° |
| 2026-05-07 08:34 | 43.94770 | 87.57165 | 37021 ft | 459 kts | 48° |
| 2026-05-07 08:34 | 43.98726 | 87.64172 | 37020 ft | 461 kts | 49° |
| 2026-05-07 08:35 | 44.02575 | 87.71232 | 37019 ft | 461 kts | 50° |
| 2026-05-07 08:35 | 44.06441 | 87.78275 | 37020 ft | 459 kts | 50° |
| 2026-05-07 08:36 | 44.10307 | 87.85335 | 37020 ft | 460 kts | 50° |
| 2026-05-07 08:36 | 44.14182 | 87.92443 | 37020 ft | 461 kts | 49° |
| 2026-05-07 08:37 | 44.18640 | 87.98591 | 37018 ft | 451 kts | 29° |
| 2026-05-07 08:37 | 44.24289 | 88.02177 | 37018 ft | 446 kts | 18° |
| 2026-05-07 08:38 | 44.29984 | 88.05486 | 37020 ft | 448 kts | 19° |
| 2026-05-07 08:38 | 44.35714 | 88.08895 | 37018 ft | 446 kts | 19° |
| 2026-05-07 08:39 | 44.41398 | 88.12189 | 37019 ft | 447 kts | 19° |
| 2026-05-07 08:39 | 44.47143 | 88.15534 | 37021 ft | 448 kts | 19° |
| 2026-05-07 08:40 | 44.52864 | 88.18904 | 37019 ft | 447 kts | 19° |
| 2026-05-07 08:40 | 44.58540 | 88.22226 | 37021 ft | 447 kts | 19° |
| 2026-05-07 08:41 | 44.64281 | 88.25590 | 37021 ft | 447 kts | 19° |
| 2026-05-07 08:41 | 44.69975 | 88.28938 | 37020 ft | 446 kts | 19° |
| 2026-05-07 08:42 | 44.75706 | 88.32301 | 37020 ft | 447 kts | 18° |
| 2026-05-07 08:42 | 44.81431 | 88.35606 | 37020 ft | 446 kts | 18° |
| 2026-05-07 08:43 | 44.87122 | 88.38864 | 37020 ft | 446 kts | 18° |
| 2026-05-07 08:43 | 44.92874 | 88.42186 | 37019 ft | 446 kts | 18° |
| 2026-05-07 08:44 | 44.98594 | 88.45490 | 37020 ft | 446 kts | 18° |
| 2026-05-07 08:44 | 45.04293 | 88.48835 | 37020 ft | 445 kts | 18° |
| 2026-05-07 08:45 | 45.09950 | 88.52169 | 37020 ft | 443 kts | 17° |
| 2026-05-07 08:45 | 45.15627 | 88.55496 | 37019 ft | 442 kts | 17° |
| 2026-05-07 08:46 | 45.21289 | 88.58823 | 37020 ft | 443 kts | 17° |
| 2026-05-07 08:46 | 45.26982 | 88.62177 | 37019 ft | 443 kts | 17° |
| 2026-05-07 08:47 | 45.32662 | 88.65530 | 37019 ft | 443 kts | 18° |
| 2026-05-07 08:47 | 45.38330 | 88.68883 | 37020 ft | 443 kts | 18° |
| 2026-05-07 08:48 | 45.43984 | 88.72234 | 37020 ft | 443 kts | 18° |
| 2026-05-07 08:48 | 45.49655 | 88.75603 | 37020 ft | 443 kts | 18° |
| 2026-05-07 08:49 | 45.55343 | 88.78990 | 37020 ft | 444 kts | 18° |
| 2026-05-07 08:49 | 45.61021 | 88.82379 | 37019 ft | 444 kts | 18° |
| 2026-05-07 08:50 | 45.66687 | 88.85767 | 37020 ft | 443 kts | 18° |
| 2026-05-07 08:50 | 45.72340 | 88.89157 | 37020 ft | 443 kts | 18° |
| 2026-05-07 08:51 | 45.77973 | 88.92579 | 37019 ft | 443 kts | 18° |
| 2026-05-07 08:51 | 45.83628 | 88.95951 | 37020 ft | 442 kts | 17° |
| 2026-05-07 08:52 | 45.89325 | 88.99350 | 37019 ft | 443 kts | 17° |
| 2026-05-07 08:52 | 45.94945 | 89.02749 | 36994 ft | 441 kts | 17° |
| 2026-05-07 08:53 | 46.00591 | 89.06110 | 36993 ft | 440 kts | 17° |
| 2026-05-07 08:53 | 46.06233 | 89.09425 | 36993 ft | 441 kts | 17° |
| 2026-05-07 08:54 | 46.11891 | 89.12850 | 36992 ft | 442 kts | 17° |
| 2026-05-07 08:54 | 46.17530 | 89.16288 | 36994 ft | 441 kts | 17° |
| 2026-05-07 08:55 | 46.23179 | 89.19687 | 36992 ft | 441 kts | 17° |
| 2026-05-07 08:55 | 46.28806 | 89.23042 | 36992 ft | 441 kts | 17° |
| 2026-05-07 08:56 | 46.34486 | 89.26437 | 36993 ft | 442 kts | 17° |
| 2026-05-07 08:56 | 46.40125 | 89.29835 | 36993 ft | 441 kts | 17° |
| 2026-05-07 08:57 | 46.45757 | 89.33240 | 36993 ft | 440 kts | 17° |
| 2026-05-07 08:57 | 46.51385 | 89.36676 | 36993 ft | 441 kts | 17° |
| 2026-05-07 08:58 | 46.57008 | 89.40120 | 36993 ft | 441 kts | 17° |
| 2026-05-07 08:58 | 46.62632 | 89.43560 | 36993 ft | 442 kts | 17° |
| 2026-05-07 08:59 | 46.68270 | 89.47058 | 36993 ft | 442 kts | 17° |
| 2026-05-07 08:59 | 46.73918 | 89.50577 | 36994 ft | 442 kts | 17° |
| 2026-05-07 09:00 | 46.79390 | 89.54680 | 36991 ft | 448 kts | 28° |